sensor_id;sensor_type;location;lat;lon;timestamp;P1;durP1;ratioP1;P2;durP2;ratioP2
74660;SDS011;63191;39.566;2.654;2023-11-19T00:02:23;11.20;;;3.00;;
74660;SDS011;63191;39.566;2.654;2023-11-19T00:04:49;13.40;;;3.10;;
74660;SDS011;63191;39.566;2.654;2023-11-19T00:07:14;12.20;;;2.70;;
74660;SDS011;63191;39.566;2.654;2023-11-19T00:09:40;8.70;;;2.70;;
74660;SDS011;63191;39.566;2.654;2023-11-19T00:12:06;8.20;;;2.50;;
74660;SDS011;63191;39.566;2.654;2023-11-19T00:14:32;10.30;;;2.80;;
74660;SDS011;63191;39.566;2.654;2023-11-19T00:16:59;9.40;;;2.40;;
74660;SDS011;63191;39.566;2.654;2023-11-19T00:19:26;11.40;;;2.60;;
74660;SDS011;63191;39.566;2.654;2023-11-19T00:21:51;10.40;;;2.90;;
74660;SDS011;63191;39.566;2.654;2023-11-19T00:24:17;13.20;;;3.40;;
74660;SDS011;63191;39.566;2.654;2023-11-19T00:26:43;12.00;;;3.20;;
74660;SDS011;63191;39.566;2.654;2023-11-19T00:29:09;13.80;;;3.20;;
74660;SDS011;63191;39.566;2.654;2023-11-19T00:31:35;12.20;;;3.10;;
74660;SDS011;63191;39.566;2.654;2023-11-19T00:34:01;10.10;;;3.00;;
74660;SDS011;63191;39.566;2.654;2023-11-19T00:36:27;11.40;;;3.40;;
74660;SDS011;63191;39.566;2.654;2023-11-19T00:38:53;7.90;;;2.90;;
74660;SDS011;63191;39.566;2.654;2023-11-19T00:41:21;12.70;;;3.20;;
74660;SDS011;63191;39.566;2.654;2023-11-19T00:43:47;11.10;;;2.90;;
74660;SDS011;63191;39.566;2.654;2023-11-19T00:46:14;10.10;;;3.10;;
74660;SDS011;63191;39.566;2.654;2023-11-19T00:48:40;12.20;;;3.20;;
74660;SDS011;63191;39.566;2.654;2023-11-19T00:51:06;8.90;;;2.40;;
74660;SDS011;63191;39.566;2.654;2023-11-19T00:53:32;12.80;;;2.80;;
74660;SDS011;63191;39.566;2.654;2023-11-19T00:55:59;9.10;;;2.30;;
74660;SDS011;63191;39.566;2.654;2023-11-19T00:58:25;8.90;;;2.40;;
74660;SDS011;63191;39.566;2.654;2023-11-19T01:00:51;9.70;;;2.60;;
74660;SDS011;63191;39.566;2.654;2023-11-19T01:03:16;10.20;;;2.20;;
74660;SDS011;63191;39.566;2.654;2023-11-19T01:05:42;8.70;;;2.10;;
74660;SDS011;63191;39.566;2.654;2023-11-19T01:08:07;14.50;;;2.20;;
74660;SDS011;63191;39.566;2.654;2023-11-19T01:10:36;8.90;;;2.00;;
74660;SDS011;63191;39.566;2.654;2023-11-19T01:13:02;8.60;;;2.00;;
74660;SDS011;63191;39.566;2.654;2023-11-19T01:15:31;10.40;;;2.00;;
74660;SDS011;63191;39.566;2.654;2023-11-19T01:17:57;6.70;;;1.90;;
74660;SDS011;63191;39.566;2.654;2023-11-19T01:20:22;8.50;;;2.10;;
74660;SDS011;63191;39.566;2.654;2023-11-19T01:22:48;9.40;;;2.30;;
74660;SDS011;63191;39.566;2.654;2023-11-19T01:25:14;11.00;;;2.90;;
74660;SDS011;63191;39.566;2.654;2023-11-19T01:27:41;13.30;;;3.40;;
74660;SDS011;63191;39.566;2.654;2023-11-19T01:30:07;8.70;;;3.20;;
74660;SDS011;63191;39.566;2.654;2023-11-19T01:32:38;10.60;;;2.70;;
74660;SDS011;63191;39.566;2.654;2023-11-19T01:35:05;10.20;;;3.10;;
74660;SDS011;63191;39.566;2.654;2023-11-19T01:37:33;10.40;;;3.00;;
74660;SDS011;63191;39.566;2.654;2023-11-19T01:40:00;10.80;;;3.40;;
74660;SDS011;63191;39.566;2.654;2023-11-19T01:42:25;8.20;;;2.60;;
74660;SDS011;63191;39.566;2.654;2023-11-19T01:45:00;13.60;;;2.60;;
74660;SDS011;63191;39.566;2.654;2023-11-19T01:47:30;9.80;;;3.00;;
74660;SDS011;63191;39.566;2.654;2023-11-19T01:49:56;11.50;;;3.10;;
74660;SDS011;63191;39.566;2.654;2023-11-19T01:52:22;11.50;;;3.20;;
74660;SDS011;63191;39.566;2.654;2023-11-19T01:54:47;9.70;;;3.10;;
74660;SDS011;63191;39.566;2.654;2023-11-19T01:57:13;11.20;;;2.40;;
74660;SDS011;63191;39.566;2.654;2023-11-19T01:59:39;9.10;;;2.30;;
74660;SDS011;63191;39.566;2.654;2023-11-19T02:02:07;9.30;;;2.40;;
74660;SDS011;63191;39.566;2.654;2023-11-19T02:04:34;10.30;;;2.80;;
74660;SDS011;63191;39.566;2.654;2023-11-19T02:07:00;7.90;;;2.30;;
74660;SDS011;63191;39.566;2.654;2023-11-19T02:09:27;9.30;;;2.30;;
74660;SDS011;63191;39.566;2.654;2023-11-19T02:11:54;9.40;;;2.30;;
74660;SDS011;63191;39.566;2.654;2023-11-19T02:14:21;11.00;;;2.70;;
74660;SDS011;63191;39.566;2.654;2023-11-19T02:16:50;11.70;;;2.80;;
74660;SDS011;63191;39.566;2.654;2023-11-19T02:19:15;9.60;;;2.50;;
74660;SDS011;63191;39.566;2.654;2023-11-19T02:21:44;7.80;;;2.30;;
74660;SDS011;63191;39.566;2.654;2023-11-19T02:24:10;8.20;;;3.00;;
74660;SDS011;63191;39.566;2.654;2023-11-19T02:29:17;10.10;;;3.00;;
74660;SDS011;63191;39.566;2.654;2023-11-19T02:31:43;16.00;;;4.20;;
74660;SDS011;63191;39.566;2.654;2023-11-19T02:34:10;8.60;;;2.60;;
74660;SDS011;63191;39.566;2.654;2023-11-19T02:36:37;9.20;;;3.00;;
74660;SDS011;63191;39.566;2.654;2023-11-19T02:39:03;10.30;;;3.40;;
74660;SDS011;63191;39.566;2.654;2023-11-19T02:41:28;9.10;;;3.00;;
74660;SDS011;63191;39.566;2.654;2023-11-19T02:43:55;11.60;;;2.80;;
74660;SDS011;63191;39.566;2.654;2023-11-19T02:46:20;8.90;;;2.80;;
74660;SDS011;63191;39.566;2.654;2023-11-19T02:48:46;10.00;;;2.60;;
74660;SDS011;63191;39.566;2.654;2023-11-19T02:51:12;9.40;;;2.50;;
74660;SDS011;63191;39.566;2.654;2023-11-19T02:53:37;10.20;;;3.20;;
74660;SDS011;63191;39.566;2.654;2023-11-19T02:56:05;8.00;;;2.30;;
74660;SDS011;63191;39.566;2.654;2023-11-19T02:58:40;10.20;;;2.40;;
74660;SDS011;63191;39.566;2.654;2023-11-19T03:01:08;9.70;;;2.40;;
74660;SDS011;63191;39.566;2.654;2023-11-19T03:03:38;8.50;;;2.30;;
74660;SDS011;63191;39.566;2.654;2023-11-19T03:06:06;8.10;;;2.40;;
74660;SDS011;63191;39.566;2.654;2023-11-19T03:08:32;7.70;;;2.10;;
74660;SDS011;63191;39.566;2.654;2023-11-19T03:11:00;8.80;;;2.10;;
74660;SDS011;63191;39.566;2.654;2023-11-19T03:13:25;6.80;;;1.90;;
74660;SDS011;63191;39.566;2.654;2023-11-19T03:15:52;8.90;;;2.00;;
74660;SDS011;63191;39.566;2.654;2023-11-19T03:18:19;7.80;;;2.30;;
74660;SDS011;63191;39.566;2.654;2023-11-19T03:20:46;8.40;;;2.20;;
74660;SDS011;63191;39.566;2.654;2023-11-19T03:23:12;10.20;;;2.00;;
74660;SDS011;63191;39.566;2.654;2023-11-19T03:25:37;8.60;;;2.00;;
74660;SDS011;63191;39.566;2.654;2023-11-19T03:28:03;7.50;;;1.90;;
74660;SDS011;63191;39.566;2.654;2023-11-19T03:30:31;10.50;;;2.40;;
74660;SDS011;63191;39.566;2.654;2023-11-19T03:32:58;10.60;;;2.00;;
74660;SDS011;63191;39.566;2.654;2023-11-19T03:35:24;5.60;;;1.60;;
74660;SDS011;63191;39.566;2.654;2023-11-19T03:37:50;7.10;;;1.90;;
74660;SDS011;63191;39.566;2.654;2023-11-19T03:40:16;7.30;;;1.90;;
74660;SDS011;63191;39.566;2.654;2023-11-19T03:42:44;10.50;;;2.00;;
74660;SDS011;63191;39.566;2.654;2023-11-19T03:45:12;7.80;;;1.90;;
74660;SDS011;63191;39.566;2.654;2023-11-19T03:47:38;8.40;;;1.80;;
74660;SDS011;63191;39.566;2.654;2023-11-19T03:50:05;8.90;;;2.20;;
74660;SDS011;63191;39.566;2.654;2023-11-19T03:52:31;8.00;;;1.90;;
74660;SDS011;63191;39.566;2.654;2023-11-19T03:54:57;7.10;;;2.00;;
74660;SDS011;63191;39.566;2.654;2023-11-19T03:57:23;10.70;;;2.20;;
74660;SDS011;63191;39.566;2.654;2023-11-19T03:59:49;10.00;;;2.10;;
74660;SDS011;63191;39.566;2.654;2023-11-19T04:02:15;5.70;;;1.70;;
74660;SDS011;63191;39.566;2.654;2023-11-19T04:04:41;8.30;;;1.80;;
74660;SDS011;63191;39.566;2.654;2023-11-19T04:07:07;6.80;;;1.80;;
74660;SDS011;63191;39.566;2.654;2023-11-19T04:09:32;8.60;;;1.60;;
74660;SDS011;63191;39.566;2.654;2023-11-19T04:11:58;7.00;;;2.00;;
74660;SDS011;63191;39.566;2.654;2023-11-19T04:14:25;7.50;;;1.80;;
74660;SDS011;63191;39.566;2.654;2023-11-19T04:16:51;8.50;;;1.70;;
74660;SDS011;63191;39.566;2.654;2023-11-19T04:19:17;5.80;;;1.80;;
74660;SDS011;63191;39.566;2.654;2023-11-19T04:21:43;7.20;;;1.70;;
74660;SDS011;63191;39.566;2.654;2023-11-19T04:24:09;5.20;;;1.60;;
74660;SDS011;63191;39.566;2.654;2023-11-19T04:26:44;5.90;;;1.60;;
74660;SDS011;63191;39.566;2.654;2023-11-19T04:29:14;7.30;;;1.50;;
74660;SDS011;63191;39.566;2.654;2023-11-19T04:31:42;6.70;;;1.40;;
74660;SDS011;63191;39.566;2.654;2023-11-19T04:34:09;8.10;;;1.30;;
74660;SDS011;63191;39.566;2.654;2023-11-19T04:36:34;8.70;;;1.60;;
74660;SDS011;63191;39.566;2.654;2023-11-19T04:39:00;6.40;;;1.50;;
74660;SDS011;63191;39.566;2.654;2023-11-19T04:41:26;8.90;;;1.70;;
74660;SDS011;63191;39.566;2.654;2023-11-19T04:43:55;5.80;;;1.40;;
74660;SDS011;63191;39.566;2.654;2023-11-19T04:46:21;7.20;;;1.60;;
74660;SDS011;63191;39.566;2.654;2023-11-19T04:48:47;8.00;;;1.60;;
74660;SDS011;63191;39.566;2.654;2023-11-19T04:51:12;9.10;;;1.50;;
74660;SDS011;63191;39.566;2.654;2023-11-19T04:53:38;6.50;;;1.40;;
74660;SDS011;63191;39.566;2.654;2023-11-19T04:56:10;6.90;;;1.30;;
74660;SDS011;63191;39.566;2.654;2023-11-19T04:58:36;6.80;;;1.30;;
74660;SDS011;63191;39.566;2.654;2023-11-19T05:01:02;7.00;;;1.30;;
74660;SDS011;63191;39.566;2.654;2023-11-19T05:03:29;5.00;;;1.30;;
74660;SDS011;63191;39.566;2.654;2023-11-19T05:05:55;7.30;;;1.50;;
74660;SDS011;63191;39.566;2.654;2023-11-19T05:08:21;6.30;;;1.40;;
74660;SDS011;63191;39.566;2.654;2023-11-19T05:10:46;6.70;;;1.40;;
74660;SDS011;63191;39.566;2.654;2023-11-19T05:13:12;6.80;;;1.40;;
74660;SDS011;63191;39.566;2.654;2023-11-19T05:15:37;10.30;;;1.40;;
74660;SDS011;63191;39.566;2.654;2023-11-19T05:18:03;6.00;;;1.40;;
74660;SDS011;63191;39.566;2.654;2023-11-19T05:20:30;7.40;;;1.40;;
74660;SDS011;63191;39.566;2.654;2023-11-19T05:22:55;5.80;;;1.60;;
74660;SDS011;63191;39.566;2.654;2023-11-19T05:25:21;7.00;;;1.60;;
74660;SDS011;63191;39.566;2.654;2023-11-19T05:27:47;5.90;;;1.60;;
74660;SDS011;63191;39.566;2.654;2023-11-19T05:30:13;7.70;;;1.60;;
74660;SDS011;63191;39.566;2.654;2023-11-19T05:32:38;5.40;;;1.30;;
74660;SDS011;63191;39.566;2.654;2023-11-19T05:35:04;7.90;;;1.60;;
74660;SDS011;63191;39.566;2.654;2023-11-19T05:37:30;8.00;;;1.60;;
74660;SDS011;63191;39.566;2.654;2023-11-19T05:39:56;7.30;;;1.60;;
74660;SDS011;63191;39.566;2.654;2023-11-19T05:42:21;8.70;;;1.70;;
74660;SDS011;63191;39.566;2.654;2023-11-19T05:44:47;11.70;;;2.30;;
74660;SDS011;63191;39.566;2.654;2023-11-19T05:47:12;7.30;;;1.80;;
74660;SDS011;63191;39.566;2.654;2023-11-19T05:49:38;8.10;;;1.80;;
74660;SDS011;63191;39.566;2.654;2023-11-19T05:52:04;6.70;;;1.70;;
74660;SDS011;63191;39.566;2.654;2023-11-19T05:54:32;4.90;;;1.50;;
74660;SDS011;63191;39.566;2.654;2023-11-19T05:57:03;7.60;;;1.70;;
74660;SDS011;63191;39.566;2.654;2023-11-19T05:59:29;11.00;;;1.80;;
74660;SDS011;63191;39.566;2.654;2023-11-19T06:01:55;6.60;;;1.70;;
74660;SDS011;63191;39.566;2.654;2023-11-19T06:04:23;5.50;;;1.50;;
74660;SDS011;63191;39.566;2.654;2023-11-19T06:06:48;8.20;;;1.50;;
74660;SDS011;63191;39.566;2.654;2023-11-19T06:09:14;8.00;;;1.40;;
74660;SDS011;63191;39.566;2.654;2023-11-19T06:11:39;7.80;;;1.40;;
74660;SDS011;63191;39.566;2.654;2023-11-19T06:14:05;6.10;;;1.30;;
74660;SDS011;63191;39.566;2.654;2023-11-19T06:16:32;7.40;;;1.50;;
74660;SDS011;63191;39.566;2.654;2023-11-19T06:18:57;6.80;;;1.30;;
74660;SDS011;63191;39.566;2.654;2023-11-19T06:21:23;4.80;;;1.10;;
74660;SDS011;63191;39.566;2.654;2023-11-19T06:23:49;4.80;;;1.30;;
74660;SDS011;63191;39.566;2.654;2023-11-19T06:26:17;6.30;;;1.10;;
74660;SDS011;63191;39.566;2.654;2023-11-19T06:28:43;4.10;;;1.00;;
74660;SDS011;63191;39.566;2.654;2023-11-19T06:31:09;6.90;;;1.20;;
74660;SDS011;63191;39.566;2.654;2023-11-19T06:33:35;6.00;;;0.90;;
74660;SDS011;63191;39.566;2.654;2023-11-19T06:36:00;6.20;;;1.40;;
74660;SDS011;63191;39.566;2.654;2023-11-19T06:38:26;3.70;;;1.10;;
74660;SDS011;63191;39.566;2.654;2023-11-19T06:40:51;6.20;;;1.10;;
74660;SDS011;63191;39.566;2.654;2023-11-19T06:43:17;6.00;;;1.40;;
74660;SDS011;63191;39.566;2.654;2023-11-19T06:45:43;9.20;;;1.40;;
74660;SDS011;63191;39.566;2.654;2023-11-19T06:48:08;5.10;;;1.10;;
74660;SDS011;63191;39.566;2.654;2023-11-19T06:50:35;5.70;;;1.40;;
74660;SDS011;63191;39.566;2.654;2023-11-19T06:53:00;7.00;;;1.40;;
74660;SDS011;63191;39.566;2.654;2023-11-19T06:55:26;5.30;;;1.20;;
74660;SDS011;63191;39.566;2.654;2023-11-19T06:57:52;6.20;;;1.50;;
74660;SDS011;63191;39.566;2.654;2023-11-19T07:00:17;6.10;;;1.60;;
74660;SDS011;63191;39.566;2.654;2023-11-19T07:02:43;5.50;;;1.20;;
74660;SDS011;63191;39.566;2.654;2023-11-19T07:05:09;5.70;;;1.50;;
74660;SDS011;63191;39.566;2.654;2023-11-19T07:07:35;7.50;;;1.50;;
74660;SDS011;63191;39.566;2.654;2023-11-19T07:10:00;7.20;;;2.00;;
74660;SDS011;63191;39.566;2.654;2023-11-19T07:12:27;6.00;;;1.50;;
74660;SDS011;63191;39.566;2.654;2023-11-19T07:14:53;5.40;;;1.70;;
74660;SDS011;63191;39.566;2.654;2023-11-19T07:17:20;5.90;;;1.80;;
74660;SDS011;63191;39.566;2.654;2023-11-19T07:19:52;5.20;;;1.70;;
74660;SDS011;63191;39.566;2.654;2023-11-19T07:22:18;5.70;;;1.90;;
74660;SDS011;63191;39.566;2.654;2023-11-19T07:24:43;6.90;;;1.60;;
74660;SDS011;63191;39.566;2.654;2023-11-19T07:27:09;7.20;;;1.70;;
74660;SDS011;63191;39.566;2.654;2023-11-19T07:29:35;6.90;;;1.70;;
74660;SDS011;63191;39.566;2.654;2023-11-19T07:32:03;7.20;;;1.60;;
74660;SDS011;63191;39.566;2.654;2023-11-19T07:34:32;6.40;;;1.80;;
74660;SDS011;63191;39.566;2.654;2023-11-19T07:37:04;8.30;;;1.70;;
74660;SDS011;63191;39.566;2.654;2023-11-19T07:39:29;11.50;;;1.70;;
74660;SDS011;63191;39.566;2.654;2023-11-19T07:41:55;6.00;;;1.30;;
74660;SDS011;63191;39.566;2.654;2023-11-19T07:44:21;5.40;;;1.70;;
74660;SDS011;63191;39.566;2.654;2023-11-19T07:46:47;7.00;;;1.60;;
74660;SDS011;63191;39.566;2.654;2023-11-19T07:49:13;6.30;;;2.00;;
74660;SDS011;63191;39.566;2.654;2023-11-19T07:51:39;7.20;;;1.90;;
74660;SDS011;63191;39.566;2.654;2023-11-19T07:54:07;7.40;;;2.00;;
74660;SDS011;63191;39.566;2.654;2023-11-19T07:56:35;5.90;;;1.80;;
74660;SDS011;63191;39.566;2.654;2023-11-19T07:59:03;7.40;;;2.10;;
74660;SDS011;63191;39.566;2.654;2023-11-19T08:01:29;7.80;;;2.10;;
74660;SDS011;63191;39.566;2.654;2023-11-19T08:03:54;7.70;;;2.00;;
74660;SDS011;63191;39.566;2.654;2023-11-19T08:06:20;8.40;;;2.50;;
74660;SDS011;63191;39.566;2.654;2023-11-19T08:08:49;8.30;;;1.80;;
74660;SDS011;63191;39.566;2.654;2023-11-19T08:11:14;7.40;;;2.00;;
74660;SDS011;63191;39.566;2.654;2023-11-19T08:13:40;6.90;;;1.90;;
74660;SDS011;63191;39.566;2.654;2023-11-19T08:16:06;7.50;;;2.00;;
74660;SDS011;63191;39.566;2.654;2023-11-19T08:18:32;7.40;;;2.00;;
74660;SDS011;63191;39.566;2.654;2023-11-19T08:20:57;7.50;;;2.30;;
74660;SDS011;63191;39.566;2.654;2023-11-19T08:23:24;7.90;;;2.10;;
74660;SDS011;63191;39.566;2.654;2023-11-19T08:25:50;5.80;;;1.90;;
74660;SDS011;63191;39.566;2.654;2023-11-19T08:28:17;8.10;;;1.90;;
74660;SDS011;63191;39.566;2.654;2023-11-19T08:30:42;12.50;;;2.40;;
74660;SDS011;63191;39.566;2.654;2023-11-19T08:33:10;6.60;;;1.70;;
74660;SDS011;63191;39.566;2.654;2023-11-19T08:35:36;8.00;;;2.00;;
74660;SDS011;63191;39.566;2.654;2023-11-19T08:38:02;6.60;;;2.00;;
74660;SDS011;63191;39.566;2.654;2023-11-19T08:40:27;8.40;;;2.40;;
74660;SDS011;63191;39.566;2.654;2023-11-19T08:42:54;6.00;;;2.10;;
74660;SDS011;63191;39.566;2.654;2023-11-19T08:45:21;5.30;;;1.50;;
74660;SDS011;63191;39.566;2.654;2023-11-19T08:47:46;8.20;;;2.10;;
74660;SDS011;63191;39.566;2.654;2023-11-19T08:50:12;8.30;;;2.30;;
74660;SDS011;63191;39.566;2.654;2023-11-19T08:52:37;7.90;;;2.30;;
74660;SDS011;63191;39.566;2.654;2023-11-19T08:55:03;9.90;;;2.10;;
74660;SDS011;63191;39.566;2.654;2023-11-19T08:57:30;7.20;;;2.30;;
74660;SDS011;63191;39.566;2.654;2023-11-19T08:59:57;10.20;;;2.50;;
74660;SDS011;63191;39.566;2.654;2023-11-19T09:02:23;8.00;;;2.40;;
74660;SDS011;63191;39.566;2.654;2023-11-19T09:04:49;9.10;;;2.30;;
74660;SDS011;63191;39.566;2.654;2023-11-19T09:07:15;6.50;;;2.00;;
74660;SDS011;63191;39.566;2.654;2023-11-19T09:09:40;7.50;;;2.50;;
74660;SDS011;63191;39.566;2.654;2023-11-19T09:12:06;8.40;;;2.50;;
74660;SDS011;63191;39.566;2.654;2023-11-19T09:14:32;8.90;;;3.10;;
74660;SDS011;63191;39.566;2.654;2023-11-19T09:16:58;7.60;;;2.40;;
74660;SDS011;63191;39.566;2.654;2023-11-19T09:19:24;8.50;;;2.40;;
74660;SDS011;63191;39.566;2.654;2023-11-19T09:21:52;8.40;;;2.50;;
74660;SDS011;63191;39.566;2.654;2023-11-19T09:24:18;10.10;;;2.50;;
74660;SDS011;63191;39.566;2.654;2023-11-19T09:26:43;8.50;;;1.70;;
74660;SDS011;63191;39.566;2.654;2023-11-19T09:29:09;6.10;;;1.20;;
74660;SDS011;63191;39.566;2.654;2023-11-19T09:31:37;7.90;;;1.70;;
74660;SDS011;63191;39.566;2.654;2023-11-19T09:34:03;6.80;;;1.40;;
74660;SDS011;63191;39.566;2.654;2023-11-19T09:36:28;8.40;;;1.30;;
74660;SDS011;63191;39.566;2.654;2023-11-19T09:38:54;7.80;;;1.30;;
74660;SDS011;63191;39.566;2.654;2023-11-19T09:41:19;6.70;;;1.30;;
74660;SDS011;63191;39.566;2.654;2023-11-19T09:43:45;8.80;;;1.60;;
74660;SDS011;63191;39.566;2.654;2023-11-19T09:46:12;7.90;;;1.60;;
74660;SDS011;63191;39.566;2.654;2023-11-19T09:48:39;8.30;;;1.40;;
74660;SDS011;63191;39.566;2.654;2023-11-19T09:51:08;7.00;;;1.30;;
74660;SDS011;63191;39.566;2.654;2023-11-19T09:53:35;8.50;;;1.30;;
74660;SDS011;63191;39.566;2.654;2023-11-19T09:56:01;8.40;;;1.60;;
74660;SDS011;63191;39.566;2.654;2023-11-19T09:58:28;8.80;;;1.50;;
74660;SDS011;63191;39.566;2.654;2023-11-19T10:00:55;10.50;;;1.70;;
74660;SDS011;63191;39.566;2.654;2023-11-19T10:03:20;9.70;;;1.50;;
74660;SDS011;63191;39.566;2.654;2023-11-19T10:05:47;9.70;;;1.90;;
74660;SDS011;63191;39.566;2.654;2023-11-19T10:08:12;10.60;;;2.10;;
74660;SDS011;63191;39.566;2.654;2023-11-19T10:10:41;9.70;;;2.10;;
74660;SDS011;63191;39.566;2.654;2023-11-19T10:13:06;8.80;;;2.10;;
74660;SDS011;63191;39.566;2.654;2023-11-19T10:15:35;7.80;;;2.10;;
74660;SDS011;63191;39.566;2.654;2023-11-19T10:18:03;9.40;;;2.40;;
74660;SDS011;63191;39.566;2.654;2023-11-19T10:20:37;8.10;;;2.60;;
74660;SDS011;63191;39.566;2.654;2023-11-19T10:23:06;8.50;;;2.50;;
74660;SDS011;63191;39.566;2.654;2023-11-19T10:25:32;9.40;;;2.50;;
74660;SDS011;63191;39.566;2.654;2023-11-19T10:27:58;8.20;;;2.10;;
74660;SDS011;63191;39.566;2.654;2023-11-19T10:30:25;8.60;;;2.20;;
74660;SDS011;63191;39.566;2.654;2023-11-19T10:33:06;10.00;;;2.20;;
74660;SDS011;63191;39.566;2.654;2023-11-19T10:35:54;8.60;;;2.60;;
74660;SDS011;63191;39.566;2.654;2023-11-19T10:38:23;9.90;;;2.40;;
74660;SDS011;63191;39.566;2.654;2023-11-19T10:40:50;10.70;;;2.90;;
74660;SDS011;63191;39.566;2.654;2023-11-19T10:43:19;8.60;;;2.50;;
74660;SDS011;63191;39.566;2.654;2023-11-19T10:45:47;9.70;;;2.90;;
74660;SDS011;63191;39.566;2.654;2023-11-19T10:48:13;9.50;;;2.10;;
74660;SDS011;63191;39.566;2.654;2023-11-19T10:50:39;10.70;;;2.20;;
74660;SDS011;63191;39.566;2.654;2023-11-19T10:53:06;8.50;;;2.00;;
74660;SDS011;63191;39.566;2.654;2023-11-19T10:55:34;9.60;;;2.10;;
74660;SDS011;63191;39.566;2.654;2023-11-19T10:58:10;5.80;;;1.40;;
74660;SDS011;63191;39.566;2.654;2023-11-19T11:03:18;8.50;;;1.90;;
74660;SDS011;63191;39.566;2.654;2023-11-19T11:05:48;9.40;;;2.00;;
74660;SDS011;63191;39.566;2.654;2023-11-19T11:08:15;8.70;;;1.90;;
74660;SDS011;63191;39.566;2.654;2023-11-19T11:10:54;8.20;;;1.90;;
74660;SDS011;63191;39.566;2.654;2023-11-19T11:13:24;9.30;;;1.70;;
74660;SDS011;63191;39.566;2.654;2023-11-19T11:15:50;10.30;;;2.10;;
74660;SDS011;63191;39.566;2.654;2023-11-19T11:18:17;8.20;;;1.70;;
74660;SDS011;63191;39.566;2.654;2023-11-19T11:20:45;10.20;;;1.90;;
74660;SDS011;63191;39.566;2.654;2023-11-19T11:35:03;6.30;;;1.20;;
74660;SDS011;63191;39.566;2.654;2023-11-19T11:37:47;5.60;;;1.40;;
74660;SDS011;63191;39.566;2.654;2023-11-19T11:40:16;9.40;;;1.20;;
74660;SDS011;63191;39.566;2.654;2023-11-19T11:42:43;6.40;;;1.30;;
74660;SDS011;63191;39.566;2.654;2023-11-19T11:45:10;7.20;;;1.20;;
74660;SDS011;63191;39.566;2.654;2023-11-19T11:50:13;9.80;;;1.90;;
74660;SDS011;63191;39.566;2.654;2023-11-19T11:55:24;7.30;;;1.50;;
74660;SDS011;63191;39.566;2.654;2023-11-19T11:57:53;8.80;;;2.40;;
74660;SDS011;63191;39.566;2.654;2023-11-19T12:00:26;9.30;;;1.50;;
74660;SDS011;63191;39.566;2.654;2023-11-19T12:02:56;7.30;;;1.60;;
74660;SDS011;63191;39.566;2.654;2023-11-19T12:05:22;5.60;;;1.10;;
74660;SDS011;63191;39.566;2.654;2023-11-19T12:07:55;8.00;;;1.40;;
74660;SDS011;63191;39.566;2.654;2023-11-19T12:10:24;6.20;;;1.40;;
74660;SDS011;63191;39.566;2.654;2023-11-19T12:12:53;6.70;;;1.40;;
74660;SDS011;63191;39.566;2.654;2023-11-19T12:15:19;6.40;;;1.30;;
74660;SDS011;63191;39.566;2.654;2023-11-19T12:17:50;11.40;;;2.70;;
74660;SDS011;63191;39.566;2.654;2023-11-19T12:20:17;7.30;;;1.30;;
74660;SDS011;63191;39.566;2.654;2023-11-19T12:22:44;9.20;;;1.60;;
74660;SDS011;63191;39.566;2.654;2023-11-19T12:25:10;6.70;;;1.50;;
74660;SDS011;63191;39.566;2.654;2023-11-19T12:27:39;5.70;;;1.20;;
74660;SDS011;63191;39.566;2.654;2023-11-19T12:30:06;5.90;;;1.00;;
74660;SDS011;63191;39.566;2.654;2023-11-19T12:32:40;7.70;;;1.20;;
74660;SDS011;63191;39.566;2.654;2023-11-19T12:35:06;7.20;;;1.80;;
74660;SDS011;63191;39.566;2.654;2023-11-19T12:37:39;7.10;;;1.60;;
74660;SDS011;63191;39.566;2.654;2023-11-19T12:42:40;13.90;;;4.90;;
74660;SDS011;63191;39.566;2.654;2023-11-19T12:45:06;6.70;;;1.50;;
74660;SDS011;63191;39.566;2.654;2023-11-19T12:47:42;12.80;;;5.70;;
74660;SDS011;63191;39.566;2.654;2023-11-19T12:50:09;7.40;;;1.40;;
74660;SDS011;63191;39.566;2.654;2023-11-19T12:52:35;6.70;;;1.20;;
74660;SDS011;63191;39.566;2.654;2023-11-19T12:55:04;6.90;;;1.40;;
74660;SDS011;63191;39.566;2.654;2023-11-19T12:57:49;9.00;;;2.90;;
74660;SDS011;63191;39.566;2.654;2023-11-19T13:00:18;7.50;;;1.60;;
74660;SDS011;63191;39.566;2.654;2023-11-19T13:02:52;8.00;;;1.60;;
74660;SDS011;63191;39.566;2.654;2023-11-19T13:05:26;7.70;;;1.30;;
74660;SDS011;63191;39.566;2.654;2023-11-19T13:08:04;6.70;;;2.00;;
74660;SDS011;63191;39.566;2.654;2023-11-19T13:10:31;8.40;;;2.20;;
74660;SDS011;63191;39.566;2.654;2023-11-19T13:13:05;8.90;;;1.80;;
74660;SDS011;63191;39.566;2.654;2023-11-19T13:15:35;7.40;;;2.60;;
74660;SDS011;63191;39.566;2.654;2023-11-19T13:18:01;9.20;;;1.70;;
74660;SDS011;63191;39.566;2.654;2023-11-19T13:20:28;6.10;;;1.30;;
74660;SDS011;63191;39.566;2.654;2023-11-19T13:22:57;7.40;;;1.30;;
74660;SDS011;63191;39.566;2.654;2023-11-19T13:25:25;6.30;;;1.30;;
74660;SDS011;63191;39.566;2.654;2023-11-19T13:27:54;9.20;;;1.60;;
74660;SDS011;63191;39.566;2.654;2023-11-19T13:30:20;6.80;;;1.00;;
74660;SDS011;63191;39.566;2.654;2023-11-19T13:32:50;6.40;;;1.30;;
74660;SDS011;63191;39.566;2.654;2023-11-19T13:35:17;4.80;;;1.00;;
74660;SDS011;63191;39.566;2.654;2023-11-19T13:37:43;6.40;;;1.30;;
74660;SDS011;63191;39.566;2.654;2023-11-19T13:40:09;6.20;;;1.10;;
74660;SDS011;63191;39.566;2.654;2023-11-19T13:42:38;7.50;;;1.40;;
74660;SDS011;63191;39.566;2.654;2023-11-19T13:45:10;6.70;;;1.40;;
74660;SDS011;63191;39.566;2.654;2023-11-19T13:47:38;5.10;;;1.10;;
74660;SDS011;63191;39.566;2.654;2023-11-19T13:50:07;7.30;;;1.50;;
74660;SDS011;63191;39.566;2.654;2023-11-19T13:52:37;5.70;;;0.90;;
74660;SDS011;63191;39.566;2.654;2023-11-19T13:55:04;5.70;;;1.00;;
74660;SDS011;63191;39.566;2.654;2023-11-19T13:57:31;5.40;;;1.20;;
74660;SDS011;63191;39.566;2.654;2023-11-19T13:59:57;5.40;;;1.10;;
74660;SDS011;63191;39.566;2.654;2023-11-19T14:02:22;5.20;;;1.10;;
74660;SDS011;63191;39.566;2.654;2023-11-19T14:04:48;7.80;;;1.30;;
74660;SDS011;63191;39.566;2.654;2023-11-19T14:07:13;9.80;;;1.70;;
74660;SDS011;63191;39.566;2.654;2023-11-19T14:09:41;8.50;;;1.30;;
74660;SDS011;63191;39.566;2.654;2023-11-19T14:12:08;8.50;;;1.30;;
74660;SDS011;63191;39.566;2.654;2023-11-19T14:14:34;6.10;;;1.20;;
74660;SDS011;63191;39.566;2.654;2023-11-19T14:17:03;6.90;;;1.40;;
74660;SDS011;63191;39.566;2.654;2023-11-19T14:19:29;7.80;;;1.40;;
74660;SDS011;63191;39.566;2.654;2023-11-19T14:21:54;9.50;;;1.70;;
74660;SDS011;63191;39.566;2.654;2023-11-19T14:24:19;8.20;;;1.50;;
74660;SDS011;63191;39.566;2.654;2023-11-19T14:26:46;6.90;;;1.00;;
74660;SDS011;63191;39.566;2.654;2023-11-19T14:29:16;9.70;;;1.60;;
74660;SDS011;63191;39.566;2.654;2023-11-19T14:31:42;8.40;;;1.40;;
74660;SDS011;63191;39.566;2.654;2023-11-19T14:34:08;5.90;;;0.90;;
74660;SDS011;63191;39.566;2.654;2023-11-19T14:36:33;5.80;;;1.30;;
74660;SDS011;63191;39.566;2.654;2023-11-19T14:39:00;5.70;;;1.10;;
74660;SDS011;63191;39.566;2.654;2023-11-19T14:41:26;10.00;;;1.20;;
74660;SDS011;63191;39.566;2.654;2023-11-19T14:43:51;10.30;;;1.70;;
74660;SDS011;63191;39.566;2.654;2023-11-19T14:46:17;8.00;;;1.30;;
74660;SDS011;63191;39.566;2.654;2023-11-19T14:48:43;11.00;;;1.50;;
74660;SDS011;63191;39.566;2.654;2023-11-19T14:51:09;7.50;;;1.20;;
74660;SDS011;63191;39.566;2.654;2023-11-19T14:53:34;7.40;;;1.30;;
74660;SDS011;63191;39.566;2.654;2023-11-19T14:56:00;5.70;;;1.20;;
74660;SDS011;63191;39.566;2.654;2023-11-19T14:58:27;7.80;;;0.90;;
74660;SDS011;63191;39.566;2.654;2023-11-19T15:00:53;10.00;;;1.20;;
74660;SDS011;63191;39.566;2.654;2023-11-19T15:03:18;10.40;;;2.10;;
74660;SDS011;63191;39.566;2.654;2023-11-19T15:05:47;8.10;;;2.00;;
74660;SDS011;63191;39.566;2.654;2023-11-19T15:08:13;7.90;;;1.30;;
74660;SDS011;63191;39.566;2.654;2023-11-19T15:10:44;5.50;;;1.00;;